Skip Navigation Links Skip Navigation Links

Current Weather

Central Park, New York

For information only: do not use for flight planning or navigation.
Latest weather
Observation time Sunday, September 20, 2020 2:51 AM EDT
Local time Sunday, September 20, 2020 3:14 AM EDT
Flight conditions Visual Meteorological Conditions
Winds
Wind direction variable
Wind speed 6 mph
Visibility 10 mi.
Sky condition
Ceiling unlimited
Sky clear
Temperature 53°F
Dewpoint 30°F
Altimeter 30.43 in.Hg
Derived measurements
Relative humidity 41%
Density altitude -727 ft.
Sea-level pressure 30.40 in.Hg
Remarks
Fully automated report.
System requires maintenance.
Automated weather observing station with precipitation discriminator.
METAR KNYC 200651Z AUTO VRB05KT 10SM CLR 12/M01 A3043 RMK AO2 SLP296 T01171011 $

Settings

Location code

InnerDrive.Weather 4.0.6770.0 Release CLR 4.0.30319.42000
Copyright ©2018 Inner Drive Technology. All rights reserved. Portions Copyright ©1986-2018 David Braverman.

Find weather

Site navigation


Skip Navigation Links

Place info

Page info

PayPal - The safer, easier way to pay online!

Return home.

Copyright ©2020 Inner Drive Technology. Purveyors of fine, hand-crafted computer software. Page printed 2020-09-20T07:14:44 UTC.